createdAt,value
2022-08-26T00:01:08.936Z,101664.00
2022-08-26T00:05:58.720Z,101662.34
2022-08-26T00:10:50.978Z,101652.00
2022-08-26T00:15:42.528Z,101661.72
2022-08-26T00:20:33.720Z,101655.44
2022-08-26T00:25:23.717Z,101659.78
2022-08-26T00:30:22.926Z,101628.69
2022-08-26T00:35:16.600Z,101675.72
2022-08-26T00:40:07.026Z,101657.38
2022-08-26T00:44:56.694Z,101658.13
2022-08-26T00:49:50.426Z,101656.34
2022-08-26T00:54:46.823Z,101658.91
2022-08-26T00:59:39.855Z,101656.34
2022-08-26T01:04:30.181Z,101657.38
2022-08-26T01:09:24.696Z,101661.97
2022-08-26T01:14:14.553Z,101658.53
2022-08-26T01:19:08.045Z,101663.00
2022-08-26T01:24:04.400Z,101653.50
2022-08-26T01:28:56.787Z,101655.47
2022-08-26T01:33:50.334Z,101652.94
2022-08-26T01:38:40.138Z,101651.19
2022-08-26T01:43:35.121Z,101659.09
2022-08-26T01:48:26.870Z,101655.59
2022-08-26T01:53:19.264Z,101658.16
2022-08-26T01:58:12.064Z,101623.66
2022-08-26T02:03:22.277Z,101664.50
2022-08-26T02:08:12.036Z,101666.28
2022-08-26T02:13:06.786Z,101666.31
2022-08-26T02:17:58.880Z,101663.75
2022-08-26T02:22:50.970Z,101678.81
2022-08-26T02:27:41.432Z,101683.25
2022-08-26T02:32:31.098Z,101679.81
2022-08-26T02:37:23.000Z,101668.47
2022-08-26T02:42:15.289Z,101677.22
2022-08-26T02:47:05.220Z,101678.16
2022-08-26T02:51:55.381Z,101679.94
2022-08-26T02:56:45.016Z,101684.41
2022-08-26T03:01:39.591Z,101681.03
2022-08-26T03:06:29.443Z,101675.78
2022-08-26T03:11:19.224Z,101666.22
2022-08-26T03:16:09.525Z,101662.78
2022-08-26T03:21:02.194Z,101660.25
2022-08-26T03:25:52.517Z,101670.00
2022-08-26T03:30:45.836Z,101667.47
2022-08-26T03:35:36.953Z,101678.97
2022-08-26T03:40:32.115Z,101679.94
2022-08-26T03:45:23.296Z,101665.25
2022-08-26T03:50:22.791Z,101618.63
2022-08-26T03:55:16.453Z,101670.38
2022-08-26T04:00:15.344Z,101661.66
2022-08-26T04:05:09.263Z,101668.69
2022-08-26T04:09:59.601Z,101642.06
2022-08-26T04:14:52.419Z,101671.38
2022-08-26T04:19:49.300Z,101606.47
2022-08-26T04:24:42.124Z,101608.34
2022-08-26T04:29:34.808Z,101665.41
2022-08-26T04:34:28.483Z,101664.41
2022-08-26T04:39:22.367Z,101664.25
2022-08-26T04:44:12.732Z,101660.88
2022-08-26T04:49:02.457Z,101646.25
2022-08-26T04:53:54.932Z,101654.91
2022-08-26T04:58:47.695Z,101651.41
2022-08-26T05:03:40.823Z,101651.56
2022-08-26T05:08:31.795Z,101661.06
2022-08-26T05:13:23.290Z,101647.31
2022-08-26T05:18:17.578Z,101603.25
2022-08-26T05:23:10.207Z,101642.06
2022-08-26T05:28:01.440Z,101686.16
2022-08-26T05:32:55.245Z,101671.38
2022-08-26T05:37:50.381Z,101642.72
2022-08-26T05:42:46.477Z,101684.06
2022-08-26T05:47:39.449Z,101695.38
2022-08-26T05:52:29.556Z,101668.66
2022-08-26T05:57:23.231Z,101665.13
2022-08-26T06:02:13.399Z,101706.47
2022-08-26T06:07:06.356Z,101707.50
2022-08-26T06:12:01.933Z,101717.97
2022-08-26T06:16:57.440Z,101731.94
2022-08-26T06:21:55.090Z,101672.44
2022-08-26T06:26:51.104Z,101732.78
2022-08-26T06:31:43.249Z,101660.56
2022-08-26T06:36:46.092Z,101750.38
2022-08-26T06:41:43.363Z,101631.25
2022-08-26T06:46:39.718Z,101680.47
2022-08-26T06:51:34.865Z,101740.31
2022-08-26T06:56:30.098Z,101716.25
2022-08-26T07:01:22.043Z,101736.19
2022-08-26T07:06:12.006Z,101764.53
2022-08-26T07:11:04.281Z,101759.41
2022-08-26T07:15:58.199Z,101757.50
2022-08-26T07:20:52.936Z,101730.81
2022-08-26T07:25:45.921Z,101703.97
2022-08-26T07:30:48.724Z,101759.38
2022-08-26T07:35:43.741Z,101756.81
2022-08-26T07:40:36.836Z,101762.09
2022-08-26T07:45:27.961Z,101783.56
2022-08-26T07:50:18.052Z,101795.78
2022-08-26T07:55:11.610Z,101796.59
2022-08-26T08:00:02.000Z,101782.75
2022-08-26T08:05:02.595Z,101803.78
2022-08-26T08:09:52.602Z,101807.97
2022-08-26T08:14:49.078Z,101818.56
2022-08-26T08:19:39.227Z,101787.47
2022-08-26T08:24:30.114Z,101782.88
2022-08-26T08:29:19.865Z,101789.72
2022-08-26T08:34:12.650Z,101773.13
2022-08-26T08:39:02.707Z,101821.84
2022-08-26T08:43:54.643Z,101810.75
2022-08-26T08:48:48.809Z,101802.00
2022-08-26T08:53:45.008Z,101816.63
2022-08-26T08:58:52.358Z,101813.19
2022-08-26T09:03:55.148Z,101762.19
2022-08-26T09:08:51.204Z,101821.84
2022-08-26T09:13:42.834Z,101772.28
2022-08-26T09:18:59.625Z,101818.75
2022-08-26T09:23:52.387Z,101818.41
2022-08-26T09:28:45.834Z,101772.44
2022-08-26T09:33:36.237Z,101793.78
2022-08-26T09:38:29.210Z,101817.25
2022-08-26T09:43:23.222Z,101807.03
2022-08-26T09:48:13.448Z,101817.72
2022-08-26T09:53:12.899Z,101807.34
2022-08-26T09:58:07.722Z,101820.28
2022-08-26T10:03:04.776Z,101821.00
2022-08-26T10:07:55.498Z,101830.63
2022-08-26T10:12:53.420Z,101802.81
2022-08-26T10:17:47.710Z,101820.94
2022-08-26T10:22:45.891Z,101802.16
2022-08-26T10:28:03.984Z,101772.88
2022-08-26T10:32:58.282Z,101835.84
2022-08-26T10:37:54.310Z,101814.25
2022-08-26T10:42:49.001Z,101835.88
2022-08-26T10:47:45.184Z,101786.50
2022-08-26T10:53:01.510Z,101828.69
2022-08-26T10:58:04.972Z,101816.66
2022-08-26T11:03:04.597Z,101781.44
2022-08-26T11:08:31.592Z,101785.28
2022-08-26T11:13:22.533Z,101726.84
2022-08-26T11:18:14.731Z,101820.06
2022-08-26T11:23:34.843Z,101785.38
2022-08-26T11:28:40.280Z,101776.97
2022-08-26T11:34:02.778Z,101806.72
2022-08-26T11:38:57.117Z,101822.56
2022-08-26T11:43:55.217Z,101825.63
2022-08-26T11:48:46.753Z,101822.22
2022-08-26T11:53:40.052Z,101818.56
2022-08-26T11:58:33.170Z,101797.00
2022-08-26T12:03:33.160Z,101828.09
2022-08-26T12:08:28.807Z,101828.22
2022-08-26T12:13:27.332Z,101828.47
2022-08-26T12:18:28.989Z,101822.16
2022-08-26T12:23:43.273Z,101839.69
2022-08-26T12:28:36.322Z,101840.69
2022-08-26T12:33:32.107Z,101826.03
2022-08-26T12:38:22.872Z,101763.00
2022-08-26T12:43:18.836Z,101729.59
2022-08-26T12:48:15.398Z,101845.44
2022-08-26T13:09:06.761Z,101700.50
2022-08-26T13:19:26.701Z,101761.72
2022-08-26T13:24:33.801Z,101848.09
2022-08-26T13:30:03.195Z,101712.41
2022-08-26T13:34:58.268Z,101816.13
2022-08-26T13:39:53.698Z,101829.78
2022-08-26T13:44:55.633Z,101812.34
2022-08-26T13:49:47.995Z,101725.88
2022-08-26T13:54:38.591Z,101812.72
2022-08-26T13:59:28.666Z,101758.00
2022-08-26T14:04:27.277Z,101755.19
2022-08-26T14:09:18.853Z,101715.38
2022-08-26T14:14:08.675Z,101795.63
2022-08-26T14:19:01.237Z,101817.97
2022-08-26T14:23:55.919Z,101812.06
2022-08-26T14:28:48.789Z,101809.47
2022-08-26T14:33:42.640Z,101820.94
2022-08-26T14:38:33.329Z,101814.91
2022-08-26T14:43:26.310Z,101817.44
2022-08-26T14:48:16.386Z,101812.97
2022-08-26T14:53:18.542Z,101813.78
2022-08-26T14:58:09.528Z,101805.13
2022-08-26T15:03:02.154Z,101811.03
2022-08-26T15:07:51.894Z,101799.56
2022-08-26T15:12:41.816Z,101792.28
2022-08-26T15:17:31.720Z,101786.81
2022-08-26T15:22:24.064Z,101798.25
2022-08-26T15:27:16.443Z,101783.34
2022-08-26T15:32:06.910Z,101789.72
2022-08-26T15:36:56.770Z,101780.28
2022-08-26T15:41:49.592Z,101788.03
2022-08-26T15:46:39.549Z,101782.09
2022-08-26T15:51:33.335Z,101788.34
2022-08-26T15:56:22.964Z,101791.22
2022-08-26T16:01:15.299Z,101789.72
2022-08-26T16:06:18.603Z,101782.06
2022-08-26T16:11:08.655Z,101784.72
2022-08-26T16:15:59.545Z,101774.78
2022-08-26T16:21:12.794Z,101775.19
2022-08-26T16:26:10.800Z,101773.16
2022-08-26T16:31:00.797Z,101770.41
2022-08-26T16:35:53.339Z,101779.41
2022-08-26T16:40:43.145Z,101769.28
2022-08-26T16:45:39.146Z,101775.56
2022-08-26T16:50:32.375Z,101769.69
2022-08-26T16:55:25.732Z,101784.66
2022-08-26T17:00:24.542Z,101789.41
2022-08-26T17:05:14.709Z,101784.22
2022-08-26T17:10:04.497Z,101779.91
2022-08-26T17:14:56.885Z,101778.25
2022-08-26T17:19:47.070Z,101776.69
2022-08-26T17:24:37.804Z,101779.50
2022-08-26T17:29:27.521Z,101778.78
2022-08-26T17:34:20.282Z,101788.56
2022-08-26T17:39:11.203Z,101797.38
2022-08-26T17:44:00.945Z,101800.13
2022-08-26T17:48:50.743Z,101800.19
2022-08-26T17:53:43.968Z,101804.72
2022-08-26T17:58:33.645Z,101818.03
2022-08-26T18:03:24.283Z,101815.53
2022-08-26T18:08:13.911Z,101822.69
2022-08-26T18:13:06.649Z,101820.16
2022-08-26T18:17:56.304Z,101811.50
2022-08-26T18:22:48.929Z,101816.09
2022-08-26T18:27:40.514Z,101824.91
2022-08-26T18:32:33.886Z,101819.69
2022-08-26T18:37:25.802Z,101828.66
2022-08-26T18:42:19.059Z,101837.50
2022-08-26T18:47:11.322Z,101842.09
2022-08-26T18:52:03.559Z,101839.59
2022-08-26T18:56:53.248Z,101841.53
2022-08-26T19:01:46.444Z,101836.41
2022-08-26T19:06:40.597Z,101846.97
2022-08-26T19:11:37.604Z,101854.06
2022-08-26T19:16:33.459Z,101840.53
2022-08-26T19:21:33.181Z,101845.78
2022-08-26T19:26:24.330Z,101850.34
2022-08-26T19:31:17.014Z,101868.00
2022-08-26T19:36:11.426Z,101864.56
2022-08-26T19:41:04.023Z,101876.09
2022-08-26T19:45:53.767Z,101871.78
2022-08-26T19:50:49.015Z,101865.81
2022-08-26T19:55:38.891Z,101871.94
2022-08-26T20:00:31.906Z,101873.78
2022-08-26T20:05:24.128Z,101874.78
2022-08-26T20:10:18.439Z,101878.38
2022-08-26T20:15:13.108Z,101868.06
2022-08-26T20:20:32.974Z,101868.91
2022-08-26T20:25:26.754Z,101876.94
2022-08-26T20:30:17.185Z,101879.59
2022-08-26T20:35:09.118Z,101875.31
2022-08-26T20:39:59.513Z,101878.97
2022-08-26T20:44:54.666Z,101879.09
2022-08-26T20:49:44.756Z,101873.91
2022-08-26T20:54:34.429Z,101868.78
2022-08-26T20:59:24.422Z,101862.81
2022-08-26T21:04:19.007Z,101875.00
2022-08-26T21:09:10.692Z,101871.63
2022-08-26T21:14:06.743Z,101875.22
2022-08-26T21:18:57.684Z,101869.19
2022-08-26T21:23:52.881Z,101874.69
2022-08-26T21:28:44.887Z,101871.25
2022-08-26T21:33:34.376Z,101880.06
2022-08-26T21:38:24.191Z,101881.91
2022-08-26T21:43:35.154Z,101883.69
2022-08-26T21:48:25.368Z,101890.72
2022-08-26T21:53:21.786Z,101881.19
2022-08-26T21:58:11.406Z,101888.22
2022-08-26T22:03:03.563Z,101885.59
2022-08-26T22:07:52.980Z,101879.53
2022-08-26T22:12:42.355Z,101878.72
2022-08-26T22:17:32.082Z,101882.25
2022-08-26T22:22:24.295Z,101885.78
2022-08-26T22:27:13.795Z,101884.03
2022-08-26T22:32:03.405Z,101884.97
2022-08-26T22:36:53.203Z,101883.19
2022-08-26T22:41:46.272Z,101888.38
2022-08-26T22:46:36.827Z,101884.00
2022-08-26T22:51:26.754Z,101875.31
2022-08-26T22:56:18.386Z,101870.97
2022-08-26T23:01:11.017Z,101865.72
2022-08-26T23:06:02.898Z,101860.50
2022-08-26T23:10:52.288Z,101872.72
2022-08-26T23:15:42.796Z,101861.41
2022-08-26T23:20:35.503Z,101864.94
2022-08-26T23:25:25.360Z,101864.94
2022-08-26T23:30:16.978Z,101853.59
2022-08-26T23:35:06.787Z,101853.69
2022-08-26T23:39:58.872Z,101858.13
2022-08-26T23:44:48.289Z,101851.22
2022-08-26T23:49:38.590Z,101856.47
2022-08-26T23:54:27.973Z,101855.59
2022-08-26T23:59:20.031Z,101856.47
